PILOTS ONLINE: 495    ATC ONLINE: 71

EGPC - Wick Airport

Location

IATA WIC
City Wick
Country  United Kingdom
Latitude 58° 27' 32" N
Longitude 3° 5' 35" W
Elevation 126 ft
Type Medium Airport

Runways

08/26 3399 ft / 148 ft
13/31 5988 ft / 148 ft

Weather

METAR
2014/08/01 13:20
EGPC 011320Z 06012KT 9999 FEW007 BKN010 14/12 Q1004
TAF
No TAF available

Outbound flights

Inbound flights